createdAt,value
2019-03-05T00:01:37.379Z,5.03
2019-03-05T00:04:06.699Z,5.04
2019-03-05T00:06:36.017Z,5.06
2019-03-05T00:09:10.492Z,5.04
2019-03-05T00:11:39.834Z,5.06
2019-03-05T00:14:09.090Z,5.06
2019-03-05T00:16:38.652Z,5.08
2019-03-05T00:19:08.003Z,5.09
2019-03-05T00:21:37.323Z,5.10
2019-03-05T00:24:44.606Z,5.10
2019-03-05T00:27:14.011Z,5.06
2019-03-05T00:30:20.052Z,5.06
2019-03-05T00:32:52.102Z,5.05
2019-03-05T00:35:30.557Z,5.09
2019-03-05T00:38:45.144Z,5.05
2019-03-05T00:41:24.446Z,5.03
2019-03-05T00:44:33.630Z,5.04
2019-03-05T00:47:53.034Z,5.01
2019-03-05T00:50:47.050Z,5.00
2019-03-05T00:53:26.175Z,5.00
2019-03-05T00:56:12.817Z,5.03
2019-03-05T00:59:01.786Z,5.03
2019-03-05T01:02:12.385Z,5.05
2019-03-05T01:05:30.884Z,5.02
2019-03-05T01:08:00.427Z,4.99
2019-03-05T01:10:29.758Z,4.98
2019-03-05T01:12:59.542Z,4.97
2019-03-05T01:15:28.818Z,4.98
2019-03-05T01:17:58.162Z,4.96
2019-03-05T01:20:27.998Z,4.91
2019-03-05T01:22:57.267Z,4.95
2019-03-05T01:25:34.118Z,4.97
2019-03-05T01:28:03.515Z,4.94
2019-03-05T01:30:59.760Z,4.99
2019-03-05T01:33:32.372Z,4.99
2019-03-05T01:36:06.672Z,4.95
2019-03-05T01:38:45.626Z,4.98
2019-03-05T01:41:15.185Z,4.94
2019-03-05T01:43:44.511Z,4.98
2019-03-05T01:46:13.799Z,4.93
2019-03-05T01:48:43.337Z,4.93
2019-03-05T01:51:12.599Z,4.93
2019-03-05T01:53:41.922Z,4.90
2019-03-05T01:56:11.387Z,4.90
2019-03-05T01:58:40.671Z,4.90
2019-03-05T02:01:10.002Z,4.89
2019-03-05T02:03:39.495Z,4.84
2019-03-05T02:06:08.735Z,4.83
2019-03-05T02:08:38.049Z,4.80
2019-03-05T02:11:07.564Z,4.80
2019-03-05T02:13:36.876Z,4.81
2019-03-05T02:16:06.166Z,4.84
2019-03-05T02:18:35.771Z,4.82
2019-03-05T02:21:05.070Z,4.80
2019-03-05T02:23:47.467Z,4.79
2019-03-05T02:27:12.579Z,4.79
2019-03-05T02:30:06.546Z,4.78
2019-03-05T02:33:31.639Z,4.82
2019-03-05T02:36:15.897Z,4.78
2019-03-05T02:39:30.882Z,4.77
2019-03-05T02:42:28.436Z,4.82
2019-03-05T02:45:31.544Z,4.79
2019-03-05T02:48:24.235Z,4.82
2019-03-05T02:51:37.160Z,4.80
2019-03-05T02:54:34.543Z,4.77
2019-03-05T02:57:08.769Z,4.73
2019-03-05T02:59:38.739Z,4.75
2019-03-05T03:02:27.055Z,4.74
2019-03-05T03:05:27.658Z,4.76
2019-03-05T03:07:56.981Z,4.77
2019-03-05T03:10:26.735Z,4.77
2019-03-05T03:12:56.410Z,4.75
2019-03-05T03:15:25.681Z,4.72
2019-03-05T03:17:54.995Z,4.68
2019-03-05T03:20:24.821Z,4.62
2019-03-05T03:22:54.139Z,4.62
2019-03-05T03:25:24.222Z,4.65
2019-03-05T03:27:53.883Z,4.64
2019-03-05T03:30:24.631Z,4.63
2019-03-05T03:32:53.982Z,4.67
2019-03-05T03:35:23.368Z,4.63
2019-03-05T03:37:52.606Z,4.63
2019-03-05T03:40:25.488Z,4.62
2019-03-05T03:42:55.345Z,4.55
2019-03-05T03:45:27.836Z,4.52
2019-03-05T03:47:57.181Z,4.54
2019-03-05T03:50:26.471Z,4.55
2019-03-05T03:52:55.820Z,4.56
2019-03-05T03:55:25.145Z,4.51
2019-03-05T03:57:54.443Z,4.46
2019-03-05T04:00:25.019Z,4.45
2019-03-05T04:02:55.006Z,4.44
2019-03-05T04:05:24.323Z,4.50
2019-03-05T04:07:53.639Z,4.54
2019-03-05T04:10:23.051Z,4.55
2019-03-05T04:12:52.273Z,4.52
2019-03-05T04:15:22.172Z,4.50
2019-03-05T04:17:51.598Z,4.47
2019-03-05T04:20:35.309Z,4.42
2019-03-05T04:23:04.632Z,4.42
2019-03-05T04:25:33.913Z,4.41
2019-03-05T04:28:03.301Z,4.39
2019-03-05T04:30:32.834Z,4.36
2019-03-05T04:33:02.130Z,4.35
2019-03-05T04:35:31.503Z,4.30
2019-03-05T04:38:00.778Z,4.33
2019-03-05T04:40:30.058Z,4.35
2019-03-05T04:42:59.356Z,4.25
2019-03-05T04:45:39.447Z,4.22
2019-03-05T04:48:09.118Z,4.17
2019-03-05T04:50:43.068Z,4.12
2019-03-05T04:53:12.501Z,4.04
2019-03-05T04:55:41.775Z,4.02
2019-03-05T04:58:11.110Z,3.92
2019-03-05T05:00:40.502Z,3.92
2019-03-05T05:03:09.791Z,3.90
2019-03-05T05:05:39.193Z,3.95
2019-03-05T05:08:08.492Z,3.94
2019-03-05T05:10:37.774Z,3.88
2019-03-05T05:13:07.111Z,3.91
2019-03-05T05:15:36.431Z,3.91
2019-03-05T05:18:05.900Z,3.93
2019-03-05T05:20:35.180Z,3.89
2019-03-05T05:23:04.565Z,3.83
2019-03-05T05:25:33.845Z,3.83
2019-03-05T05:28:03.124Z,3.77
2019-03-05T05:30:39.406Z,3.77
2019-03-05T05:33:08.859Z,3.74
2019-03-05T05:35:38.174Z,3.70
2019-03-05T05:38:07.556Z,3.70
2019-03-05T05:40:38.444Z,3.71
2019-03-05T05:43:15.624Z,3.69
2019-03-05T05:45:49.357Z,3.66
2019-03-05T05:48:18.921Z,3.60
2019-03-05T05:50:48.263Z,3.55
2019-03-05T05:53:17.513Z,3.46
2019-03-05T05:55:46.917Z,3.48
2019-03-05T05:58:16.242Z,3.48
2019-03-05T06:00:47.698Z,3.50
2019-03-05T06:03:17.040Z,3.49
2019-03-05T06:05:46.288Z,3.43
2019-03-05T06:08:15.585Z,3.36
2019-03-05T06:10:44.999Z,3.34
2019-03-05T06:13:14.341Z,3.36
2019-03-05T06:15:43.614Z,3.31
2019-03-05T06:18:13.077Z,3.30
2019-03-05T06:20:42.834Z,3.25
2019-03-05T06:23:12.139Z,3.26
2019-03-05T06:25:41.667Z,3.24
2019-03-05T06:28:11.008Z,3.23
2019-03-05T06:30:40.356Z,3.30
2019-03-05T06:33:09.620Z,3.30
2019-03-05T06:35:38.983Z,3.29
2019-03-05T06:38:08.315Z,3.39
2019-03-05T06:40:37.688Z,3.50
2019-03-05T06:43:06.985Z,3.44
2019-03-05T06:45:36.282Z,3.38
2019-03-05T06:48:05.830Z,3.34
2019-03-05T06:50:35.134Z,3.26
2019-03-05T06:53:04.435Z,3.27
2019-03-05T06:55:33.785Z,3.25
2019-03-05T06:58:03.058Z,3.26
2019-03-05T07:00:33.682Z,3.19
2019-03-05T07:03:02.995Z,3.24
2019-03-05T07:06:07.587Z,3.19
2019-03-05T07:08:38.899Z,3.17
2019-03-05T07:11:53.401Z,3.12
2019-03-05T07:14:31.606Z,3.11
2019-03-05T07:17:31.727Z,3.11
2019-03-05T07:20:32.204Z,3.02
2019-03-05T07:23:19.314Z,3.01
2019-03-05T07:25:48.815Z,3.11
2019-03-05T07:28:18.108Z,3.01
2019-03-05T07:30:47.380Z,3.03
2019-03-05T07:33:17.015Z,3.07
2019-03-05T07:35:46.485Z,3.11
2019-03-05T07:38:15.837Z,3.07
2019-03-05T07:40:45.310Z,3.12
2019-03-05T07:43:14.578Z,3.23
2019-03-05T07:45:43.889Z,3.19
2019-03-05T07:48:13.314Z,3.12
2019-03-05T07:50:42.710Z,3.13
2019-03-05T07:53:12.078Z,3.13
2019-03-05T07:55:41.504Z,3.14
2019-03-05T07:58:10.905Z,3.15
2019-03-05T08:00:40.259Z,3.19
2019-03-05T08:03:09.763Z,3.26
2019-03-05T08:05:39.132Z,3.23
2019-03-05T08:08:44.028Z,3.24
2019-03-05T08:11:13.784Z,3.30
2019-03-05T08:14:34.551Z,3.29
2019-03-05T08:17:03.920Z,3.32
2019-03-05T08:19:33.342Z,3.37
2019-03-05T08:22:03.283Z,3.37
2019-03-05T08:24:32.641Z,3.41
2019-03-05T08:27:02.004Z,3.51
2019-03-05T08:29:31.659Z,3.58
2019-03-05T08:32:01.083Z,3.64
2019-03-05T08:34:30.451Z,3.69
2019-03-05T08:37:00.243Z,3.75
2019-03-05T08:39:29.603Z,3.76
2019-03-05T08:41:58.940Z,3.76
2019-03-05T08:44:28.482Z,3.80
2019-03-05T08:46:57.827Z,3.78
2019-03-05T08:49:27.171Z,3.82
2019-03-05T08:51:56.712Z,3.85
2019-03-05T08:54:26.046Z,3.97
2019-03-05T08:56:55.385Z,4.05
2019-03-05T08:59:25.069Z,4.03
2019-03-05T09:01:54.415Z,4.07
2019-03-05T09:04:23.812Z,4.02
2019-03-05T09:06:53.452Z,4.08
2019-03-05T09:09:22.803Z,4.10
2019-03-05T09:11:52.160Z,4.10
2019-03-05T09:14:21.784Z,4.15
2019-03-05T09:16:51.139Z,4.19
2019-03-05T09:19:20.538Z,4.06
2019-03-05T09:21:50.014Z,4.05
2019-03-05T09:24:19.356Z,3.96
2019-03-05T09:26:51.603Z,3.93
2019-03-05T09:29:20.026Z,3.89
2019-03-05T09:31:49.361Z,3.91
2019-03-05T09:34:18.713Z,3.95
2019-03-05T09:36:51.197Z,3.97
2019-03-05T09:39:19.341Z,4.12
2019-03-05T09:41:48.686Z,4.23
2019-03-05T09:44:18.246Z,4.06
2019-03-05T09:46:47.592Z,3.96
2019-03-05T09:49:16.932Z,4.01
2019-03-05T09:51:46.408Z,4.16
2019-03-05T09:54:15.665Z,4.20
2019-03-05T09:56:44.999Z,3.94
2019-03-05T09:59:14.475Z,3.94
2019-03-05T10:01:43.784Z,3.87
2019-03-05T10:04:13.042Z,3.92
2019-03-05T10:06:42.709Z,3.96
2019-03-05T10:09:12.076Z,3.94
2019-03-05T10:11:41.347Z,3.93
2019-03-05T10:14:10.894Z,3.99
2019-03-05T10:16:40.204Z,3.98
2019-03-05T10:19:09.513Z,3.90
2019-03-05T10:21:46.268Z,3.87
2019-03-05T10:24:11.082Z,3.73
2019-03-05T10:26:40.540Z,3.69
2019-03-05T10:29:09.884Z,3.66
2019-03-05T10:31:39.214Z,3.62
2019-03-05T10:34:08.661Z,3.60
2019-03-05T10:36:38.027Z,3.50
2019-03-05T10:39:30.516Z,3.47
2019-03-05T10:41:56.570Z,3.43
2019-03-05T10:44:26.020Z,3.63
2019-03-05T10:46:56.231Z,3.62
2019-03-05T10:49:25.834Z,3.73
2019-03-05T10:51:55.320Z,3.63
2019-03-05T10:54:24.615Z,3.61
2019-03-05T10:56:54.032Z,3.58
2019-03-05T10:59:23.579Z,3.51
2019-03-05T11:01:52.900Z,3.39
2019-03-05T11:04:22.511Z,3.51
2019-03-05T11:06:52.144Z,3.49
2019-03-05T11:09:21.876Z,3.60
2019-03-05T11:11:51.180Z,3.60
2019-03-05T11:14:20.700Z,3.50
2019-03-05T11:16:50.145Z,3.61
2019-03-05T11:19:19.760Z,3.61
2019-03-05T11:21:49.168Z,3.76
2019-03-05T11:24:18.632Z,3.65
2019-03-05T11:26:47.903Z,3.56
2019-03-05T11:29:17.377Z,3.42
2019-03-05T11:31:46.690Z,3.46
2019-03-05T11:34:16.018Z,3.41
2019-03-05T11:36:45.538Z,3.42
2019-03-05T11:39:15.025Z,3.48
2019-03-05T11:41:44.360Z,3.52
2019-03-05T11:44:13.809Z,3.48
2019-03-05T11:46:43.214Z,3.48
2019-03-05T11:49:12.508Z,3.54
2019-03-05T11:51:41.959Z,3.59
2019-03-05T11:54:11.268Z,3.70
2019-03-05T11:56:40.669Z,3.65
2019-03-05T11:59:10.132Z,3.58
2019-03-05T12:01:42.760Z,3.70
2019-03-05T12:04:12.246Z,3.74
2019-03-05T12:06:41.522Z,3.77
2019-03-05T12:09:10.864Z,3.84
2019-03-05T12:11:40.280Z,3.83
2019-03-05T12:14:09.549Z,3.94
2019-03-05T12:16:41.531Z,3.98
2019-03-05T12:19:10.189Z,3.85
2019-03-05T12:21:39.531Z,3.81
2019-03-05T12:24:08.793Z,3.83
2019-03-05T12:26:38.292Z,4.03
2019-03-05T12:29:07.578Z,3.98
2019-03-05T12:31:36.847Z,4.12
2019-03-05T12:34:06.339Z,4.17
2019-03-05T12:36:35.641Z,4.18
2019-03-05T12:39:05.589Z,4.23
2019-03-05T12:41:34.939Z,4.23
2019-03-05T12:44:05.374Z,4.18
2019-03-05T12:46:34.802Z,4.17
2019-03-05T12:49:04.227Z,4.15
2019-03-05T12:51:33.541Z,4.11
2019-03-05T12:54:02.787Z,4.07
2019-03-05T12:56:32.245Z,4.01
2019-03-05T12:59:01.576Z,4.04
2019-03-05T13:01:30.863Z,4.02
2019-03-05T13:04:00.327Z,3.84
2019-03-05T13:06:29.652Z,3.42
2019-03-05T13:08:58.991Z,3.28
2019-03-05T13:11:28.513Z,2.37
2019-03-05T13:14:06.044Z,2.00
2019-03-05T13:16:29.028Z,1.74
2019-03-05T13:18:58.514Z,1.26
2019-03-05T13:21:28.502Z,1.20
2019-03-05T13:23:57.898Z,1.07
2019-03-05T13:26:27.247Z,1.10
2019-03-05T13:28:56.521Z,0.98
2019-03-05T13:31:25.787Z,0.90
2019-03-05T13:33:55.093Z,0.96
2019-03-05T13:36:24.407Z,0.99
2019-03-05T13:38:53.828Z,1.06
2019-03-05T13:41:23.096Z,0.99
2019-03-05T13:43:55.486Z,1.04
2019-03-05T13:46:25.869Z,1.11
2019-03-05T13:49:40.255Z,1.08
2019-03-05T13:52:36.073Z,1.14
2019-03-05T13:55:17.781Z,1.26
2019-03-05T13:58:00.859Z,1.37
2019-03-05T14:00:30.200Z,1.36
2019-03-05T14:03:01.166Z,1.31
2019-03-05T14:06:14.649Z,1.26
2019-03-05T14:09:12.314Z,1.33
2019-03-05T14:11:41.988Z,1.28
2019-03-05T14:14:15.730Z,1.34
2019-03-05T14:16:45.608Z,1.28
2019-03-05T14:19:14.980Z,1.36
2019-03-05T14:21:44.372Z,1.35
2019-03-05T14:24:13.969Z,1.46
2019-03-05T14:26:43.281Z,1.48
2019-03-05T14:29:12.569Z,1.44
2019-03-05T14:31:42.126Z,1.43
2019-03-05T14:34:11.453Z,1.51
2019-03-05T14:36:40.780Z,1.39
2019-03-05T14:39:27.931Z,1.47
2019-03-05T14:41:57.316Z,1.46
2019-03-05T14:44:26.721Z,1.45
2019-03-05T14:46:57.706Z,1.38
2019-03-05T14:49:27.313Z,1.42
2019-03-05T14:51:56.563Z,1.47
2019-03-05T14:54:25.912Z,1.39
2019-03-05T14:56:55.211Z,1.43
2019-03-05T14:59:24.561Z,1.36
2019-03-05T15:01:53.919Z,1.36
2019-03-05T15:04:23.216Z,1.30
2019-03-05T15:06:52.607Z,1.28
2019-03-05T15:09:22.148Z,1.30
2019-03-05T15:11:51.447Z,1.30
2019-03-05T15:14:20.749Z,1.27
2019-03-05T15:16:50.127Z,1.32
2019-03-05T15:19:21.665Z,1.31
2019-03-05T15:21:50.555Z,1.29
2019-03-05T15:24:20.089Z,1.24
2019-03-05T15:26:49.338Z,1.32
2019-03-05T15:29:18.635Z,1.37
2019-03-05T15:31:48.145Z,1.26
2019-03-05T15:34:17.418Z,1.29
2019-03-05T15:36:46.750Z,1.26
2019-03-05T15:39:16.153Z,1.28
2019-03-05T15:41:46.284Z,1.24
2019-03-05T15:44:15.769Z,1.30
2019-03-05T15:46:45.250Z,1.39
2019-03-05T15:49:14.566Z,1.39
2019-03-05T15:51:43.846Z,1.36
2019-03-05T15:54:13.268Z,1.40
2019-03-05T15:56:42.623Z,1.41
2019-03-05T15:59:12.064Z,1.42
2019-03-05T16:01:41.437Z,1.42
2019-03-05T16:04:10.781Z,1.36
2019-03-05T16:06:40.114Z,1.35
2019-03-05T16:09:19.029Z,1.33
2019-03-05T16:11:48.327Z,1.37
2019-03-05T16:14:17.584Z,1.33
2019-03-05T16:16:47.004Z,1.28
2019-03-05T16:19:17.735Z,1.27
2019-03-05T16:21:47.233Z,1.24
2019-03-05T16:24:16.569Z,1.23
2019-03-05T16:26:45.865Z,1.23
2019-03-05T16:29:16.206Z,1.20
2019-03-05T16:32:01.564Z,1.17
2019-03-05T16:34:45.885Z,1.17
2019-03-05T16:37:22.333Z,1.17
2019-03-05T16:40:08.945Z,1.14
2019-03-05T16:42:53.185Z,1.12
2019-03-05T16:45:47.408Z,1.05
2019-03-05T16:48:29.802Z,1.06
2019-03-05T16:51:18.082Z,0.99
2019-03-05T16:53:58.166Z,0.94
2019-03-05T16:56:35.484Z,0.96
2019-03-05T16:59:35.665Z,0.90
2019-03-05T17:02:18.382Z,0.89
2019-03-05T17:05:22.388Z,0.87
2019-03-05T17:08:03.059Z,0.91
2019-03-05T17:10:57.501Z,0.91
2019-03-05T17:13:26.802Z,0.88
2019-03-05T17:15:56.096Z,0.88
2019-03-05T17:18:25.770Z,0.88
2019-03-05T17:20:55.265Z,0.88
2019-03-05T17:23:24.518Z,0.84
2019-03-05T17:25:53.940Z,0.74
2019-03-05T17:28:23.262Z,0.69
2019-03-05T17:30:52.538Z,0.64
2019-03-05T17:33:22.104Z,0.60
2019-03-05T17:35:51.397Z,0.58
2019-03-05T17:38:20.693Z,0.52
2019-03-05T17:40:49.990Z,0.48
2019-03-05T17:43:19.309Z,0.49
2019-03-05T17:45:48.621Z,0.48
2019-03-05T17:48:17.953Z,0.42
2019-03-05T17:50:47.240Z,0.41
2019-03-05T17:53:16.519Z,0.40
2019-03-05T17:55:46.023Z,0.39
2019-03-05T17:58:15.331Z,0.39
2019-03-05T18:00:45.452Z,0.38
2019-03-05T18:03:14.909Z,0.39
2019-03-05T18:05:44.178Z,0.40
2019-03-05T18:08:13.517Z,0.39
2019-03-05T18:10:42.992Z,0.39
2019-03-05T18:13:12.277Z,0.38
2019-03-05T18:15:41.586Z,0.38
2019-03-05T18:18:11.011Z,0.40
2019-03-05T18:20:40.303Z,0.37
2019-03-05T18:23:09.631Z,0.35
2019-03-05T18:25:39.043Z,0.33
2019-03-05T18:28:08.307Z,0.37
2019-03-05T18:30:37.590Z,0.41
2019-03-05T18:33:06.992Z,0.39
2019-03-05T18:35:36.336Z,0.38
2019-03-05T18:38:05.759Z,0.38
2019-03-05T18:40:35.244Z,0.32
2019-03-05T18:43:04.820Z,0.26
2019-03-05T18:45:34.244Z,0.23
2019-03-05T18:48:03.798Z,0.25
2019-03-05T18:50:33.096Z,0.23
2019-03-05T18:53:02.389Z,0.24
2019-03-05T18:55:32.112Z,0.28
2019-03-05T18:58:01.443Z,0.31
2019-03-05T19:00:30.782Z,0.34
2019-03-05T19:03:00.352Z,0.29
2019-03-05T19:05:29.674Z,0.28
2019-03-05T19:07:59.016Z,0.24
2019-03-05T19:10:28.595Z,0.22
2019-03-05T19:12:57.913Z,0.25
2019-03-05T19:15:27.329Z,0.23
2019-03-05T19:17:56.838Z,0.23
2019-03-05T19:20:26.285Z,0.25
2019-03-05T19:22:55.693Z,0.18
2019-03-05T19:25:26.762Z,0.17
2019-03-05T19:27:56.124Z,0.14
2019-03-05T19:30:31.243Z,0.12
2019-03-05T19:33:00.536Z,0.16
2019-03-05T19:35:29.932Z,0.17
2019-03-05T19:37:59.442Z,0.09
2019-03-05T19:40:30.897Z,0.06
2019-03-05T19:43:00.260Z,0.03
2019-03-05T19:45:29.583Z,0.09
2019-03-05T19:47:58.931Z,0.09
2019-03-05T19:50:28.306Z,0.12
2019-03-05T19:52:57.801Z,0.14
2019-03-05T19:55:27.105Z,0.11
2019-03-05T19:58:08.486Z,0.12
2019-03-05T20:00:42.327Z,0.09
2019-03-05T20:03:11.747Z,0.05
2019-03-05T20:05:41.145Z,0.06
2019-03-05T20:08:10.449Z,0.06
2019-03-05T20:10:40.011Z,0.09
2019-03-05T20:13:09.367Z,0.07
2019-03-05T20:15:38.774Z,0.09
2019-03-05T20:18:08.133Z,0.15
2019-03-05T20:20:37.465Z,0.14
2019-03-05T20:23:06.921Z,0.13
2019-03-05T20:25:36.560Z,0.17
2019-03-05T20:28:05.873Z,0.22
2019-03-05T20:30:35.369Z,0.22
2019-03-05T20:33:04.954Z,0.23
2019-03-05T20:35:34.290Z,0.24
2019-03-05T20:38:05.191Z,0.28
2019-03-05T20:40:34.545Z,0.29
2019-03-05T20:43:03.950Z,0.27
2019-03-05T20:45:33.312Z,0.29
2019-03-05T20:48:02.745Z,0.30
2019-03-05T20:50:32.314Z,0.29
2019-03-05T20:53:01.727Z,0.31
2019-03-05T20:55:31.245Z,0.34
2019-03-05T20:58:00.625Z,0.33
2019-03-05T21:00:31.427Z,0.33
2019-03-05T21:03:02.699Z,0.35
2019-03-05T21:05:34.116Z,0.33
2019-03-05T21:08:03.484Z,0.32
2019-03-05T21:10:32.831Z,0.36
2019-03-05T21:13:02.857Z,0.38
2019-03-05T21:15:32.677Z,0.39
2019-03-05T21:18:02.438Z,0.40
2019-03-05T21:20:31.778Z,0.38
2019-03-05T21:23:01.039Z,0.41
2019-03-05T21:25:30.713Z,0.38
2019-03-05T21:28:00.104Z,0.35
2019-03-05T21:30:29.503Z,0.37
2019-03-05T21:32:58.766Z,0.32
2019-03-05T21:35:28.064Z,0.31
2019-03-05T21:37:57.874Z,0.32
2019-03-05T21:40:27.405Z,0.27
2019-03-05T21:42:56.660Z,0.28
2019-03-05T21:45:29.277Z,0.24
2019-03-05T21:47:58.625Z,0.21
2019-03-05T21:50:27.908Z,0.18
2019-03-05T21:52:57.392Z,0.21
2019-03-05T21:55:26.713Z,0.23
2019-03-05T21:57:56.065Z,0.24
2019-03-05T22:00:27.573Z,0.27
2019-03-05T22:02:57.400Z,0.23
2019-03-05T22:05:26.702Z,0.26
2019-03-05T22:07:56.177Z,0.26
2019-03-05T22:10:25.806Z,0.23
2019-03-05T22:12:55.143Z,0.24
2019-03-05T22:15:24.734Z,0.23
2019-03-05T22:17:54.041Z,0.25
2019-03-05T22:20:23.760Z,0.20
2019-03-05T22:22:53.133Z,0.22
2019-03-05T22:25:22.470Z,0.14
2019-03-05T22:27:51.786Z,0.13
2019-03-05T22:30:23.309Z,0.11
2019-03-05T22:32:52.648Z,0.10
2019-03-05T22:35:22.229Z,0.10
2019-03-05T22:37:51.583Z,0.05
2019-03-05T22:40:20.974Z,0.02
2019-03-05T22:42:50.382Z,0.11
2019-03-05T22:45:21.315Z,0.13
2019-03-05T22:47:50.759Z,0.14
2019-03-05T22:50:20.069Z,0.16
2019-03-05T22:52:49.593Z,0.21
2019-03-05T22:55:18.988Z,0.19
2019-03-05T22:57:48.347Z,0.18
2019-03-05T23:00:31.977Z,0.22
2019-03-05T23:03:01.690Z,0.20
2019-03-05T23:05:31.759Z,0.25
2019-03-05T23:08:02.255Z,0.23
2019-03-05T23:10:31.793Z,0.21
2019-03-05T23:13:01.101Z,0.27
2019-03-05T23:15:30.469Z,0.30
2019-03-05T23:17:59.866Z,0.34
2019-03-05T23:20:29.393Z,0.36
2019-03-05T23:22:58.934Z,0.35
2019-03-05T23:25:28.688Z,0.33
2019-03-05T23:27:58.019Z,0.40
2019-03-05T23:30:27.766Z,0.35
2019-03-05T23:32:57.226Z,0.38
2019-03-05T23:35:26.488Z,0.38
2019-03-05T23:37:56.189Z,0.41
2019-03-05T23:40:25.488Z,0.42
2019-03-05T23:42:54.874Z,0.41
2019-03-05T23:45:24.412Z,0.38
2019-03-05T23:47:53.785Z,0.41
2019-03-05T23:50:23.067Z,0.38
2019-03-05T23:52:52.542Z,0.42
2019-03-05T23:55:21.839Z,0.35
2019-03-05T23:57:51.093Z,0.34
